METAR Data
IDs: Format: Raw Decoded Include TAF

Data at: 1334 UTC 14 Dec 2019

KAWM 141253Z AUTO 18007KT 1/4SM -SN FG VV002 04/04 A2978 RMK AO2 RAB09E11B43E45SNB11 SLP084 P0000 T00390039 $
KAWM 141153Z AUTO 16006KT 1/4SM FG VV002 02/02 A2978 RMK AO2 SLP083 60001 70001 T00220022 10028 20000 58003 $
KAWM 141053Z AUTO 17004KT 1/2SM FG VV002 01/01 A2980 RMK AO2 SNE19 SLP091 P0001 T00110011 $
KAWM 141051Z AUTO 18004KT 1/2SM FG VV002 02/02 A2980 RMK AO2 SNE19 P0001 $
KAWM 141045Z AUTO 18004KT 1/4SM FG VV001 02/02 A2980 RMK AO2 SNE19 P0001 T00170017 $
KAWM 141014Z AUTO 20004KT 1/2SM -SN FG VV001 03/03 A2980 RMK AO2 P0000 T00280028 $
KAWM 140953Z AUTO 20004KT 1/4SM -SN FG VV001 01/01 A2979 RMK AO2 SNB31 SLP090 P0000 T00110011 $
KAWM 140902Z AUTO 17003KT 1/4SM FG VV001 01/01 A2978 RMK AO2 T00060006 $
KAWM 140849Z AUTO 00000KT 1/2SM FG VV002 00/00 A2978 RMK AO2 SLP086 T00000000 58007 $
KAWM 140848Z AUTO 00000KT 1/2SM FG VV002 00/00 A2978 RMK AO2 $
KAWM 140823Z AUTO 18003KT 1/4SM FG VV001 00/00 A2979 RMK AO2 T00000000 $
KAWM 140814Z AUTO 00000KT 1/2SM FG VV001 00/00 A2979 RMK AO2 T00000000 $
KAWM 140809Z AUTO 00000KT 1 1/2SM BR BKN001 01/01 A2980 RMK AO2 VIS 1/2V5 T00060006 $
KAWM 140807Z AUTO 00000KT 3SM BR BKN001 01/01 A2980 RMK AO2 T00060006 $
KAWM 140800Z AUTO 00000KT 3SM BR SCT001 01/01 A2981 RMK AO2 T00060006 $
KAWM 140755Z AUTO 00000KT 1SM BR 01/01 A2981 RMK AO2 T00060006 $
KAWM 140753Z AUTO 00000KT 1/2SM FG 01/01 A2981 RMK AO2 SLP095 T00060006 $
KAWM 140734Z AUTO 00000KT 1/4SM FG 00/00 A2980 RMK AO2 T00000000 $
KAWM 140720Z AUTO 00000KT 1/4SM FG VV001 00/00 A2979 RMK AO2 T00000000
KAWM 140713Z AUTO 18003KT 1/2SM FG VV001 01/01 A2979 RMK AO2 T00060006
KAWM 140704Z AUTO 15003KT 3/4SM BR VV001 01/01 A2979 RMK AO2 T00060006
KAWM 140653Z AUTO 00000KT 1SM BR VV001 01/01 A2979 RMK AO2 SLP090 T00060006
KAWM 140649Z AUTO 00000KT 1SM BR VV001 01/01 A2980 RMK AO2
KAWM 140644Z AUTO 00000KT 1/2SM FG VV001 01/01 A2980 RMK AO2 T00060006
KAWM 140635Z AUTO 00000KT 3/4SM BR VV002 01/01 A2980 RMK AO2 T00110011
KAWM 140624Z AUTO 00000KT 1 1/4SM BR SCT002 01/01 A2981 RMK AO2 VIS 1/2V5 T00110011
KAWM 140621Z AUTO 00000KT 3/4SM BR VV002 01/01 A2981 RMK AO2 T00110011
KAWM 140603Z AUTO 00000KT 1/4SM FG VV002 02/02 A2981 RMK AO2 T00170017
KAWM 140553Z AUTO 00000KT 1/2SM FG VV002 02/02 A2981 RMK AO2 SLP094 I6000 T00220017 10083 20017 400940017 58010
KAWM 140540Z AUTO 00000KT 1/2SM FG VV002 03/02 A2982 RMK AO2 T00280022
KAWM 140536Z AUTO 00000KT 3/4SM BR CLR 03/03 A2982 RMK AO2 T00280028
KAWM 140525Z AUTO 00000KT 1/2SM FG VV002 03/02 A2982 RMK AO2 T00280022
KAWM 140518Z AUTO 00000KT 1SM BR VV002 03/02 A2982 RMK AO2 T00280022
KAWM 140507Z AUTO 00000KT 1/2SM FG VV002 02/02 A2982 RMK AO2 T00220022
KAWM 140453Z AUTO 00000KT 1/2SM FG CLR 02/02 A2983 RMK AO2 SLP101 I1000 T00220022
KAWM 140434Z AUTO 00000KT 1 3/4SM BR CLR 03/03 A2983 RMK AO2 I1000 T00280028
KAWM 140418Z AUTO 00000KT 3SM BR CLR 02/02 A2983 RMK AO2 I1000 T00220022
KAWM 140400Z AUTO 00000KT 1 1/4SM BR CLR 03/03 A2983 RMK AO2 T00280028
KAWM 140353Z AUTO 00000KT 2SM BR CLR 03/03 A2984 RMK AO2 SLP105 T00330033
KAWM 140324Z AUTO 00000KT 4SM BR CLR 04/04 A2984 RMK AO2 T00390039
KAWM 140316Z AUTO 00000KT 2 1/2SM BR CLR 04/04 A2984 RMK AO2 T00390039
KAWM 140253Z AUTO 00000KT 5SM BR CLR 04/04 A2984 RMK AO2 SLP105 T00440039 57001
KAWM 140153Z AUTO 00000KT 7SM CLR 06/05 A2984 RMK AO2 SLP106 T00560050
KAWM 140053Z AUTO 00000KT 10SM SCT090 07/06 A2984 RMK AO2 SLP105 T00670056
KAWM 132353Z AUTO 00000KT 10SM OVC060 08/06 A2984 RMK AO2 SLP106 T00830061 10094 20078 56007
KAWM 132253Z AUTO 00000KT 10SM OVC055 09/06 A2985 RMK AO2 SLP107 T00890061
KAWM 132153Z AUTO 00000KT 10SM OVC060 09/06 A2985 RMK AO2 SLP108 T00940061
KAWM 132103Z AUTO 00000KT 10SM FEW013 FEW018 OVC050 09/06 A2986 RMK AO2 T00940061
KAWM 132053Z AUTO 20004KT 10SM SCT013 BKN020 OVC050 09/07 A2986 RMK AO2 SLP112 T00940067 55023
KAWM 131953Z AUTO 15005KT 10SM FEW011 OVC065 09/07 A2985 RMK AO2 SLP109 T00890072
KAWM 131941Z AUTO 15005KT 10SM SCT011 OVC070 09/07 A2985 RMK AO2 T00940067
KAWM 131933Z AUTO 14004KT 10SM SCT010 BKN019 OVC070 09/07 A2986 RMK AO2 PRESFR T00890067
KAWM 131923Z AUTO 00000KT 10SM FEW010 BKN070 OVC090 09/07 A2987 RMK AO2 T00890067
KAWM 131853Z AUTO 00000KT 10SM OVC021 09/07 A2990 RMK AO2 SLP125 T00890072
KAWM 131826Z AUTO 24003KT 9SM OVC016 08/07 A2991 RMK AO2 T00830072
KAWM 131753Z AUTO 30003KT 9SM SCT006 OVC014 08/07 A2993 RMK AO2 SLP136 T00830072 10089 20072 58025
KAWM 131738Z AUTO 00000KT 9SM SCT006 OVC012 09/08 A2994 RMK AO2 T00890078
KAWM 131700Z AUTO 00000KT 7SM BKN007 OVC011 08/08 A2997 RMK AO2 CIG 004V009 T00830078
KAWM 131553Z AUTO 19004KT 6SM BR OVC004 08/08 A3000 RMK AO2 SLP158 T00780078
KAWM 131543Z AUTO 19004KT 4SM BR OVC003 08/08 A3000 RMK AO2 CIG 002V006 T00780078
KAWM 131526Z AUTO 16003KT 2SM BR OVC003 08/08 A2999 RMK AO2 T00780078
KAWM 131510Z AUTO 00000KT 1SM BR OVC002 08/08 A3000 RMK AO2 T00780078
KAWM 131500Z AUTO 00000KT 3/4SM BR OVC002 08/08 A3000 RMK AO2 T00780078
KAWM 131453Z AUTO 00000KT 1/2SM FG OVC002 07/07 A3000 RMK AO2 SLP161 T00720072 58004
KAWM 131443Z AUTO 00000KT 1/2SM FG OVC002 08/08 A3001 RMK AO2 T00780078
KAWM 131402Z AUTO 00000KT 1/2SM FG OVC003 07/07 A3001 RMK AO2 T00720072
KAWM 131353Z AUTO 21003KT 3/4SM BR OVC003 07/07 A3002 RMK AO2 SLP165 T00720072
KAWM 131338Z AUTO 00000KT 1 1/2SM BR OVC003 07/07 A3001 RMK AO2 T00720072
KAWM 131327Z AUTO 00000KT 2SM BR OVC003 07/07 A3001 RMK AO2 T00720072
KAWM 131253Z AUTO 21003KT 7SM OVC004 07/07 A3002 RMK AO2 SLP165 T00720072
KAWM 131218Z AUTO 18004KT 7SM OVC004 07/07 A3001 RMK AO2 T00720072
KAWM 131153Z AUTO 19004KT 7SM OVC005 07/07 A3002 RMK AO2 SLP165 T00720072 10072 20044 56017
KAWM 131053Z AUTO 00000KT 10SM OVC007 07/07 A3003 RMK AO2 SLP169 T00720067
KAWM 130953Z AUTO 15006KT 10SM OVC008 07/06 A3003 RMK AO2 SLP170 T00720061
KAWM 130907Z AUTO 16005KT 10SM OVC009 07/06 A3006 RMK AO2 T00670056
KAWM 130853Z AUTO 16004KT 10SM OVC010 07/06 A3007 RMK AO2 SLP181 T00670056 58015
KAWM 130753Z AUTO 17005KT 10SM OVC010 07/05 A3009 RMK AO2 SLP190 T00670050
KAWM 130739Z AUTO 19004KT 10SM OVC010 06/05 A3010 RMK AO2 T00610050
KAWM 130728Z AUTO 18004KT 10SM OVC009 06/05 A3010 RMK AO2 T00610050
KAWM 130653Z AUTO 18007KT 10SM BKN011 06/04 A3011 RMK AO2 SLP196 T00560044
KAWM 130651Z AUTO 18007KT 10SM BKN011 05/04 A3011 RMK AO2
KAWM 130553Z AUTO 18007KT 10SM CLR 04/03 A3012 RMK AO2 SLP201 T00440033 10056 20022 401221011 56011
KAWM 130453Z AUTO 17007KT 10SM CLR 05/03 A3013 RMK AO2 SLP204 T00500033
KAWM 130353Z AUTO 16008KT 10SM CLR 05/03 A3014 RMK AO2 SLP209 T00500028
KAWM 130253Z AUTO 14004KT 10SM CLR 03/01 A3015 RMK AO2 SLP213 T00330006 58006
KAWM 130153Z AUTO 15007KT 10SM CLR 04/00 A3016 RMK AO2 SLP216 T00390000